Time;durP1;ratioP1;P1;durP2;ratioP2;P2;SDS_P1;SDS_P2;PMS_P1;PMS_P2;Temp;Humidity;BMP_temperature;BMP_pressure;BME280_temperature;BME280_humidity;BME280_pressure;Samples;Min_cycle;Max_cycle;Signal;HPM_P1;HPM_P2
2022/05/12 00:00:43;;;;;;;1.42;0.60;;;22.70;48.10;21.70;100668.00;;;;5040389;28;20384;-71
2022/05/12 00:03:29;;;;;;;1.63;0.70;;;22.70;48.00;21.70;100679.00;;;;5036065;28;20045;-71
2022/05/12 00:06:15;;;;;;;1.23;0.57;;;22.70;48.20;21.80;100670.00;;;;5026515;28;20511;-71
2022/05/12 00:09:02;;;;;;;1.30;0.73;;;22.70;48.10;21.70;100691.00;;;;5038084;28;20037;-72
2022/05/12 00:11:48;;;;;;;1.25;0.50;;;22.70;48.10;21.80;100701.00;;;;5038947;28;20092;-72
2022/05/12 00:14:34;;;;;;;2.10;0.70;;;22.70;48.10;21.70;100715.00;;;;5023175;28;20086;-71
2022/05/12 00:17:20;;;;;;;1.48;0.60;;;22.70;47.90;21.70;100732.00;;;;5023489;28;20040;-72
2022/05/12 00:20:07;;;;;;;2.28;0.60;;;22.70;47.80;21.80;100737.00;;;;5022817;28;20041;-72
2022/05/12 00:23:09;;;;;;;1.70;0.60;;;22.70;47.90;21.80;100742.00;;;;5024311;28;20100;-72
2022/05/12 00:25:56;;;;;;;2.53;0.60;;;22.70;47.50;21.70;100758.00;;;;5010807;28;20049;-72
2022/05/12 00:28:42;;;;;;;1.60;0.60;;;22.70;47.40;21.70;100767.00;;;;5025720;28;20077;-72
2022/05/12 00:31:28;;;;;;;1.65;0.93;;;22.70;47.40;21.70;100769.00;;;;5039025;28;20044;-72
2022/05/12 00:34:35;;;;;;;1.95;0.50;;;22.70;47.50;21.70;100775.00;;;;5022202;28;20040;-72
2022/05/12 00:37:21;;;;;;;1.38;0.63;;;22.70;47.50;21.70;100797.00;;;;5037765;28;20055;-72
2022/05/12 00:40:07;;;;;;;1.85;0.55;;;22.70;47.40;21.70;100803.00;;;;5036962;28;20063;-72
2022/05/12 00:43:04;;;;;;;0.50;0.45;;;22.70;47.40;21.70;100802.00;;;;5020731;28;20037;-72
2022/05/12 00:45:50;;;;;;;2.78;0.52;;;22.70;47.40;21.70;100814.00;;;;5027229;28;20097;-72
2022/05/12 00:48:37;;;;;;;1.20;0.52;;;22.60;47.30;21.70;100827.00;;;;5036455;28;20031;-72
2022/05/12 00:51:32;;;;;;;1.77;0.40;;;22.60;47.40;21.70;100832.00;;;;5039417;28;20543;-72
2022/05/12 00:54:23;;;;;;;2.40;0.50;;;22.60;47.40;21.70;100849.00;;;;5011348;28;20042;-72
2022/05/12 00:57:11;;;;;;;2.40;0.60;;;22.60;47.30;21.70;100850.00;;;;5021966;28;20053;-72
2022/05/12 00:59:58;;;;;;;1.52;0.60;;;22.50;46.80;21.70;100860.00;;;;5008376;28;20056;-72
2022/05/12 01:02:46;;;;;;;2.85;0.60;;;22.60;47.00;21.70;100861.00;;;;5026692;28;20811;-72
2022/05/12 01:05:32;;;;;;;1.42;0.60;;;22.60;46.80;21.60;100874.00;;;;5024046;28;20079;-72
2022/05/12 01:08:18;;;;;;;2.30;0.52;;;22.60;47.00;21.60;100880.00;;;;5040727;28;20284;-72
2022/05/12 01:11:11;;;;;;;1.02;0.30;;;22.50;46.50;21.60;100884.00;;;;5005533;28;20041;-71
2022/05/12 01:14:03;;;;;;;1.38;0.50;;;22.50;46.90;21.60;100888.00;;;;5028872;28;20045;-72
2022/05/12 01:16:55;;;;;;;4.18;0.57;;;22.50;46.90;21.60;100891.00;;;;5011812;28;20045;-72
2022/05/12 01:19:42;;;;;;;1.33;0.45;;;22.50;46.90;21.60;100891.00;;;;5038123;28;20044;-72
2022/05/12 01:22:59;;;;;;;2.90;0.47;;;22.40;46.80;21.60;100897.00;;;;5028415;28;20324;-71
2022/05/12 01:25:45;;;;;;;4.38;0.85;;;22.40;46.90;21.60;100902.00;;;;5018143;28;20512;-72
2022/05/12 01:28:31;;;;;;;2.25;0.50;;;22.40;46.80;21.60;100903.00;;;;5036688;28;20041;-72
2022/05/12 01:31:18;;;;;;;2.25;0.50;;;22.40;46.60;21.50;100919.00;;;;5038890;28;20041;-72
2022/05/12 01:34:06;;;;;;;1.65;0.30;;;22.40;46.30;21.50;100916.00;;;;5004922;28;20068;-71
2022/05/12 01:36:52;;;;;;;2.72;0.73;;;22.40;46.60;21.50;100925.00;;;;5032838;28;20154;-72
2022/05/12 01:39:38;;;;;;;1.95;0.60;;;22.40;46.60;21.50;100926.00;;;;5043645;28;20481;-72
2022/05/12 01:42:25;;;;;;;0.60;0.40;;;22.40;46.70;21.50;100935.00;;;;5019230;28;20048;-72
2022/05/12 01:45:11;;;;;;;2.05;0.57;;;22.40;46.60;21.50;100940.00;;;;5037419;28;20045;-72
2022/05/12 01:47:57;;;;;;;1.38;0.70;;;22.30;46.60;21.50;100942.00;;;;5024336;28;20083;-72
2022/05/12 01:50:45;;;;;;;1.75;0.32;;;22.30;46.60;21.50;100949.00;;;;5038775;28;20406;-72
2022/05/12 01:53:31;;;;;;;2.00;0.88;;;22.30;46.60;21.50;100958.00;;;;5011968;28;20060;-71
2022/05/12 01:56:17;;;;;;;1.33;0.30;;;22.30;46.50;21.50;100955.00;;;;5030464;28;20103;-71
2022/05/12 01:59:03;;;;;;;2.03;0.47;;;22.30;46.70;21.50;100963.00;;;;5034482;28;20387;-72
2022/05/12 02:01:49;;;;;;;1.27;0.30;;;22.30;46.70;21.50;100963.00;;;;5035106;28;20049;-72
2022/05/12 02:04:35;;;;;;;2.65;0.60;;;22.30;46.60;21.50;100962.00;;;;5040384;28;20055;-71
2022/05/12 02:07:21;;;;;;;1.45;0.40;;;22.20;46.70;21.40;100966.00;;;;5031380;28;20048;-71
2022/05/12 02:10:08;;;;;;;2.15;0.30;;;22.20;46.50;21.50;100971.00;;;;5019063;28;20071;-72
2022/05/12 02:12:55;;;;;;;1.52;0.77;;;22.30;46.60;21.40;100973.00;;;;5021422;28;20144;-72
2022/05/12 02:15:41;;;;;;;0.55;0.40;;;22.20;46.60;21.40;100971.00;;;;5025660;28;20305;-71
2022/05/12 02:18:28;;;;;;;1.48;0.45;;;22.20;46.60;21.40;100983.00;;;;5009995;28;20060;-72
2022/05/12 02:21:14;;;;;;;1.60;0.40;;;22.20;46.60;21.40;100988.00;;;;5041958;28;20045;-72
2022/05/12 02:24:01;;;;;;;1.77;0.40;;;22.20;46.60;21.40;100992.00;;;;5036124;28;20679;-72
2022/05/12 02:26:47;;;;;;;1.35;0.40;;;22.20;47.30;21.40;100995.00;;;;5036426;28;20056;-72
2022/05/12 02:29:33;;;;;;;1.83;0.50;;;22.20;46.60;21.40;100985.00;;;;5041539;28;20033;-72
2022/05/12 02:32:19;;;;;;;1.48;0.50;;;22.20;46.30;21.40;100996.00;;;;5038382;28;20038;-72
2022/05/12 02:35:06;;;;;;;1.05;0.43;;;22.20;46.40;21.40;100999.00;;;;5029044;28;20452;-72
2022/05/12 02:37:52;;;;;;;0.90;0.23;;;22.20;46.30;21.40;100993.00;;;;5014217;28;20327;-72
2022/05/12 02:40:38;;;;;;;2.05;0.40;;;22.20;46.40;21.40;101012.00;;;;5023221;28;20033;-72
2022/05/12 02:43:24;;;;;;;3.60;0.40;;;22.20;46.30;21.40;101005.00;;;;5026123;28;20041;-72
2022/05/12 02:46:11;;;;;;;1.77;0.40;;;22.20;46.30;21.40;101016.00;;;;5045192;28;20076;-72
2022/05/12 02:48:57;;;;;;;2.95;0.50;;;22.20;46.30;21.40;101018.00;;;;5040443;28;20040;-72
2022/05/12 02:51:44;;;;;;;1.60;0.40;;;22.20;46.40;21.40;101026.00;;;;5036391;28;20055;-72
2022/05/12 02:54:30;;;;;;;1.77;0.28;;;22.20;46.40;21.40;101028.00;;;;5039050;28;20437;-71
2022/05/12 02:57:16;;;;;;;1.35;0.40;;;22.20;46.30;21.30;101030.00;;;;5037726;28;20045;-71
2022/05/12 03:00:07;;;;;;;1.80;0.43;;;22.10;46.20;21.30;101039.00;;;;5034431;28;20406;-72
2022/05/12 03:02:53;;;;;;;1.63;0.47;;;22.10;46.20;21.30;101038.00;;;;5019519;28;20044;-71
2022/05/12 03:05:39;;;;;;;1.60;0.40;;;22.10;46.10;21.30;101046.00;;;;5030407;28;20049;-72
2022/05/12 03:08:25;;;;;;;1.02;0.30;;;21.80;45.90;21.30;101045.00;;;;5019887;28;20070;-71
2022/05/12 03:11:12;;;;;;;0.80;0.40;;;22.10;46.00;21.30;101051.00;;;;5033650;28;20064;-71
2022/05/12 03:13:59;;;;;;;2.72;0.50;;;22.10;46.10;21.30;101057.00;;;;5033201;28;20460;-72
2022/05/12 03:16:45;;;;;;;1.85;0.40;;;22.10;46.10;21.30;101057.00;;;;5017777;28;20053;-71
2022/05/12 03:19:31;;;;;;;1.73;0.65;;;22.10;46.20;21.30;101062.00;;;;5036396;28;20128;-71
2022/05/12 03:22:17;;;;;;;2.03;0.50;;;22.20;46.30;21.30;101061.00;;;;5021465;28;20045;-71
2022/05/12 03:25:04;;;;;;;2.00;0.28;;;22.10;46.20;21.30;101071.00;;;;5034947;28;20080;-71
2022/05/12 03:27:50;;;;;;;1.48;0.40;;;22.10;46.20;21.30;101076.00;;;;5019310;28;20044;-71
2022/05/12 03:30:36;;;;;;;1.20;0.40;;;22.10;46.10;21.30;101075.00;;;;5035339;28;20064;-71
2022/05/12 03:33:22;;;;;;;3.35;0.60;;;22.10;46.20;21.20;101075.00;;;;5031714;28;20419;-72
2022/05/12 03:36:08;;;;;;;1.55;0.50;;;22.10;46.20;21.20;101084.00;;;;5017847;28;20041;-71
2022/05/12 03:38:54;;;;;;;2.88;0.65;;;22.10;46.20;21.20;101085.00;;;;5021760;28;20407;-71
2022/05/12 03:41:40;;;;;;;2.90;0.68;;;22.00;46.00;21.20;101080.00;;;;5038996;28;20064;-71
2022/05/12 03:44:46;;;;;;;1.80;0.35;;;22.10;46.10;21.20;101091.00;;;;5042401;28;20045;-71
2022/05/12 03:47:33;;;;;;;0.47;0.30;;;22.00;46.20;21.20;101093.00;;;;5039588;28;20033;-71
2022/05/12 03:50:25;;;;;;;2.53;0.50;;;22.00;46.10;21.20;101109.00;;;;5008647;28;20052;-71
2022/05/12 03:53:11;;;;;;;1.63;0.40;;;22.00;46.10;21.20;101113.00;;;;5034242;28;20042;-71
2022/05/12 03:55:57;;;;;;;1.27;0.30;;;22.00;46.10;21.20;101118.00;;;;5034563;28;20053;-71
2022/05/12 03:58:43;;;;;;;1.25;0.43;;;22.00;46.10;21.20;101121.00;;;;5023183;28;20445;-71
2022/05/12 04:01:29;;;;;;;1.77;0.40;;;22.00;46.10;21.20;101124.00;;;;5024564;28;20048;-71
2022/05/12 04:04:15;;;;;;;1.60;0.40;;;22.00;46.10;21.20;101124.00;;;;5036735;28;20041;-71
2022/05/12 04:07:02;;;;;;;4.70;0.47;;;22.00;46.00;21.20;101128.00;;;;5035073;28;20037;-71
2022/05/12 04:09:48;;;;;;;1.05;0.40;;;22.00;46.00;21.10;101132.00;;;;5020940;28;20053;-72
2022/05/12 04:12:34;;;;;;;0.95;0.45;;;22.00;46.00;21.20;101135.00;;;;5023278;28;20034;-72
2022/05/12 04:15:21;;;;;;;1.75;0.73;;;22.00;46.10;21.10;101129.00;;;;5041337;28;20036;-72
2022/05/12 04:18:07;;;;;;;3.28;0.75;;;22.00;46.00;21.10;101139.00;;;;5019707;28;20087;-72
2022/05/12 04:20:53;;;;;;;3.05;0.55;;;21.90;46.00;21.10;101151.00;;;;5021236;28;20407;-72
2022/05/12 04:23:39;;;;;;;1.55;0.40;;;22.00;46.00;21.10;101145.00;;;;5037553;28;20108;-72
2022/05/12 04:26:25;;;;;;;2.15;0.40;;;22.00;46.10;21.10;101153.00;;;;5025685;28;20463;-72
2022/05/12 04:29:11;;;;;;;1.00;0.40;;;21.90;46.00;21.10;101154.00;;;;5034816;28;20123;-65
2022/05/12 04:31:57;;;;;;;1.77;0.50;;;21.90;46.00;21.10;101163.00;;;;5019575;28;20088;-65
2022/05/12 04:37:51;;;;;;;2.72;0.60;;;21.90;46.10;21.10;101166.00;;;;5033760;28;20379;-66
2022/05/12 04:40:38;;;;;;;1.83;0.28;;;21.90;46.10;21.10;101174.00;;;;5010164;28;20548;-66
2022/05/12 04:43:24;;;;;;;19.45;1.80;;;21.90;46.10;21.10;101176.00;;;;5026470;28;20205;-65
2022/05/12 04:46:10;;;;;;;1.48;0.45;;;21.90;46.10;21.10;101178.00;;;;5037784;28;20569;-65
2022/05/12 04:48:56;;;;;;;1.48;0.35;;;21.80;46.00;21.10;101189.00;;;;5024977;28;20120;-66
2022/05/12 04:51:42;;;;;;;1.50;0.55;;;21.90;46.00;21.10;101196.00;;;;5038566;28;20430;-66
2022/05/12 04:54:29;;;;;;;1.88;0.30;;;21.90;46.00;21.10;101200.00;;;;5012860;28;20091;-65
2022/05/12 04:57:15;;;;;;;2.20;0.60;;;21.90;46.00;21.10;101200.00;;;;5022418;28;20101;-66
2022/05/12 05:00:01;;;;;;;1.27;0.60;;;21.80;45.90;21.00;101195.00;;;;5041166;28;20383;-66
2022/05/12 05:02:47;;;;;;;2.15;0.55;;;21.90;45.90;21.00;101203.00;;;;5039909;28;20041;-66
2022/05/12 05:05:34;;;;;;;2.58;0.52;;;21.90;45.90;21.00;101203.00;;;;5021333;28;20485;-66
2022/05/12 05:08:21;;;;;;;1.15;0.40;;;21.90;45.80;21.00;101202.00;;;;5042933;28;20041;-65
2022/05/12 05:11:07;;;;;;;1.88;0.90;;;21.90;45.90;21.00;101211.00;;;;5013159;28;20029;-66
2022/05/12 05:13:53;;;;;;;2.72;0.70;;;21.80;45.80;21.00;101207.00;;;;5035171;28;20124;-66
2022/05/12 05:16:39;;;;;;;1.02;0.68;;;21.90;45.90;21.00;101221.00;;;;5024471;28;20116;-66
2022/05/12 05:19:26;;;;;;;4.38;1.05;;;21.90;45.90;21.00;101220.00;;;;5035065;28;20399;-65
2022/05/12 05:22:12;;;;;;;3.40;1.23;;;21.80;45.80;21.00;101220.00;;;;5038708;28;20043;-66
2022/05/12 05:24:58;;;;;;;3.80;0.93;;;21.80;45.80;21.00;101231.00;;;;5025269;28;20036;-65
2022/05/12 05:27:45;;;;;;;2.75;1.05;;;21.80;45.80;21.00;101234.00;;;;5021142;28;20049;-66
2022/05/12 05:30:32;;;;;;;2.25;0.88;;;21.80;45.70;21.00;101234.00;;;;5023884;28;20478;-65
2022/05/12 05:33:19;;;;;;;2.90;1.02;;;21.80;45.80;21.00;101237.00;;;;5036501;28;20045;-65
2022/05/12 05:36:05;;;;;;;4.82;0.90;;;21.80;45.80;20.90;101245.00;;;;5021831;28;20037;-66
2022/05/12 05:38:51;;;;;;;1.48;0.82;;;21.80;45.80;20.90;101249.00;;;;5036233;28;20052;-66
2022/05/12 05:41:38;;;;;;;5.13;1.20;;;21.80;45.90;20.90;101254.00;;;;5031885;28;20037;-65
2022/05/12 05:44:24;;;;;;;2.77;1.23;;;21.80;45.90;20.90;101266.00;;;;5024162;28;20044;-66
2022/05/12 05:47:10;;;;;;;2.85;1.02;;;21.80;45.90;20.90;101265.00;;;;5035292;28;20350;-65
2022/05/12 05:49:56;;;;;;;3.95;1.15;;;21.80;46.00;20.90;101270.00;;;;5009714;28;20037;-65
2022/05/12 05:55:47;;;;;;;3.78;1.17;;;21.80;46.00;20.90;101277.00;;;;5026329;28;20049;-66
2022/05/12 05:58:33;;;;;;;4.85;1.23;;;21.80;46.10;20.90;101289.00;;;;5037976;28;20044;-66
2022/05/12 06:01:20;;;;;;;3.47;1.05;;;21.70;46.20;20.90;101288.00;;;;5020465;28;20055;-65
2022/05/12 06:04:06;;;;;;;3.38;1.40;;;21.80;46.20;20.80;101292.00;;;;5031997;28;20052;-66
2022/05/12 06:06:52;;;;;;;3.15;1.45;;;21.70;46.20;20.80;101293.00;;;;5038519;28;20059;-66
2022/05/12 06:09:38;;;;;;;3.13;1.45;;;21.70;46.30;20.80;101296.00;;;;5036169;28;20044;-66
2022/05/12 06:12:24;;;;;;;2.83;1.55;;;21.70;46.30;20.80;101299.00;;;;5041391;28;20073;-66
2022/05/12 06:15:11;;;;;;;5.05;1.67;;;21.70;46.30;20.80;101294.00;;;;5020704;28;20503;-66
2022/05/12 06:17:57;;;;;;;2.90;1.73;;;21.70;46.40;20.80;101310.00;;;;5027489;28;20313;-66
2022/05/12 06:20:44;;;;;;;3.88;2.05;;;21.70;46.50;20.80;101312.00;;;;5042732;28;20409;-65
2022/05/12 06:23:32;;;;;;;4.88;2.10;;;21.70;46.50;20.70;101322.00;;;;5039541;28;20040;-66
2022/05/12 06:26:20;;;;;;;4.05;1.92;;;21.70;46.60;20.70;101318.00;;;;5040173;28;20061;-66
2022/05/12 06:29:06;;;;;;;5.57;2.40;;;21.70;46.70;20.70;101319.00;;;;5037064;28;20045;-66
2022/05/12 06:31:52;;;;;;;6.22;2.50;;;21.70;46.70;20.70;101327.00;;;;5039274;28;20049;-66
2022/05/12 06:34:41;;;;;;;6.05;2.65;;;21.70;46.70;20.70;101330.00;;;;5034756;28;20033;-66
2022/05/12 06:37:27;;;;;;;6.13;3.08;;;21.70;46.80;20.70;101331.00;;;;5029949;28;20125;-66
2022/05/12 06:40:14;;;;;;;3.42;2.85;;;21.70;46.80;20.60;101334.00;;;;5043772;28;20045;-66
2022/05/12 06:43:04;;;;;;;5.30;2.75;;;21.70;46.80;20.60;101345.00;;;;5030912;28;20041;-66
2022/05/12 06:45:50;;;;;;;5.25;2.72;;;21.70;47.00;20.70;101343.00;;;;5036393;28;20067;-66
2022/05/12 06:48:37;;;;;;;5.90;2.65;;;21.60;46.90;20.70;101356.00;;;;5038541;28;20121;-67
2022/05/12 06:51:23;;;;;;;6.23;3.00;;;21.60;46.90;20.70;101356.00;;;;5034304;28;20483;-66
2022/05/12 06:54:09;;;;;;;6.43;2.70;;;21.60;47.00;20.70;101346.00;;;;5038109;28;20037;-66
2022/05/12 06:56:55;;;;;;;4.25;2.95;;;21.60;47.30;20.70;101351.00;;;;5029935;28;20131;-66
2022/05/12 06:59:41;;;;;;;4.82;2.80;;;21.60;47.10;20.70;101362.00;;;;5041463;28;20414;-66
2022/05/12 07:02:27;;;;;;;4.93;3.13;;;21.60;47.10;20.70;101358.00;;;;5037927;28;20052;-66
2022/05/12 07:05:15;;;;;;;6.35;3.25;;;21.60;47.10;20.70;101369.00;;;;5033380;28;20037;-65
2022/05/12 07:08:01;;;;;;;5.43;2.92;;;21.70;47.20;20.70;101366.00;;;;5030794;28;20574;-65
2022/05/12 07:10:47;;;;;;;5.47;2.97;;;21.60;47.10;20.70;101367.00;;;;5035698;28;20038;-66
2022/05/12 07:13:33;;;;;;;8.23;3.25;;;21.70;47.20;20.70;101366.00;;;;5043083;28;20398;-65
2022/05/12 07:16:20;;;;;;;6.18;3.33;;;21.60;47.20;20.70;101371.00;;;;5036159;28;20049;-65
2022/05/12 07:19:06;;;;;;;7.75;3.33;;;21.60;47.10;20.70;101371.00;;;;5038019;28;20050;-66
2022/05/12 07:28:01;;;;;;;4.28;2.67;;;21.60;47.20;20.70;101380.00;;;;5037568;28;20187;-66
2022/05/12 07:31:02;;;;;;;5.47;3.22;;;21.70;47.20;20.80;101384.00;;;;5045814;28;20071;-65
2022/05/12 07:33:48;;;;;;;5.88;2.67;;;21.60;47.10;20.80;101380.00;;;;5037611;28;20045;-65
2022/05/12 07:36:37;;;;;;;6.55;2.80;;;21.60;47.20;20.80;101375.00;;;;5038100;28;20513;-66
2022/05/12 07:39:28;;;;;;;5.43;3.42;;;21.70;47.20;20.80;101383.00;;;;5004661;28;20569;-66
2022/05/12 07:42:14;;;;;;;4.13;3.08;;;21.70;47.10;20.70;101387.00;;;;5013192;28;20049;-66
2022/05/12 07:45:00;;;;;;;5.47;2.90;;;21.70;47.00;20.70;101381.00;;;;5034444;28;20038;-66
2022/05/12 07:47:49;;;;;;;6.32;2.90;;;21.70;47.10;20.70;101381.00;;;;5035804;28;20408;-65
2022/05/12 07:50:35;;;;;;;5.90;2.90;;;21.70;47.10;20.70;101378.00;;;;5041352;28;20118;-66
2022/05/12 07:53:21;;;;;;;7.10;3.00;;;21.70;47.00;20.70;101384.00;;;;5034589;28;20041;-66
2022/05/12 07:56:08;;;;;;;3.40;2.05;;;21.70;47.00;20.70;101395.00;;;;5041199;28;20049;-65
2022/05/12 07:58:54;;;;;;;4.60;2.38;;;21.70;47.10;20.70;101384.00;;;;5041475;28;20051;-66
2022/05/12 08:01:40;;;;;;;2.80;2.40;;;21.70;46.80;20.80;101393.00;;;;5021195;28;20731;-66
2022/05/12 08:04:27;;;;;;;4.07;2.38;;;21.70;47.00;20.80;101396.00;;;;5035847;28;20099;-65
2022/05/12 08:07:13;;;;;;;5.38;2.33;;;21.70;46.80;20.80;101395.00;;;;5021679;28;20121;-65
2022/05/12 08:10:01;;;;;;;4.45;2.30;;;21.70;46.90;20.80;101400.00;;;;5037265;28;20038;-66
2022/05/12 08:12:47;;;;;;;;;;;21.70;46.70;20.70;101407.00;;;;5039716;28;20119;-65
2022/05/12 08:15:33;;;;;;;3.60;1.80;;;21.70;46.80;20.70;101407.00;;;;5040142;28;19920;-66
2022/05/12 08:18:24;;;;;;;3.20;1.80;;;21.80;46.70;20.80;101410.00;;;;5039144;28;20391;-66
2022/05/12 08:21:10;;;;;;;4.90;1.75;;;21.80;46.80;20.80;101426.00;;;;5018020;28;20045;-66
2022/05/12 08:23:56;;;;;;;3.28;1.83;;;21.80;46.80;20.80;101419.00;;;;5039588;28;20041;-66
2022/05/12 08:26:42;;;;;;;3.08;1.50;;;21.80;46.60;20.80;101409.00;;;;5025232;28;20045;-66
2022/05/12 08:29:28;;;;;;;2.38;1.58;;;21.80;46.50;20.80;101415.00;;;;5036156;28;20067;-66
2022/05/12 08:32:15;;;;;;;3.15;1.48;;;21.80;46.40;20.80;101414.00;;;;5039245;28;20041;-66
2022/05/12 08:35:01;;;;;;;4.03;1.67;;;21.70;46.30;20.80;101418.00;;;;5041725;28;20474;-66
2022/05/12 08:37:47;;;;;;;2.90;1.40;;;21.80;46.30;20.80;101415.00;;;;5039773;28;20612;-65
2022/05/12 08:41:27;;;;;;;4.28;1.33;;;21.80;46.20;20.80;101420.00;;;;5040323;28;20041;-66
2022/05/12 08:44:14;;;;;;;5.30;1.42;;;21.80;45.90;20.80;101416.00;;;;5024037;28;20036;-65
2022/05/12 08:47:02;;;;;;;2.20;1.25;;;21.80;45.90;20.80;101416.00;;;;5006163;28;20098;-66
2022/05/12 08:49:50;;;;;;;2.75;1.27;;;21.80;45.90;20.80;101418.00;;;;5019536;28;20491;-66
2022/05/12 08:52:46;;;;;;;2.10;0.88;;;21.80;45.90;20.80;101426.00;;;;5029212;28;20043;-66
2022/05/12 08:55:39;;;;;;;1.83;1.05;;;21.80;46.10;20.80;101431.00;;;;5009596;28;20033;-65
2022/05/12 08:58:46;;;;;;;1.70;0.93;;;21.80;46.00;20.80;101428.00;;;;5022891;28;20047;-66
2022/05/12 09:02:18;;;;;;;2.28;1.05;;;21.80;46.20;20.80;101436.00;;;;5020284;28;20146;-66
2022/05/12 09:05:11;;;;;;;1.30;0.70;;;21.80;46.10;20.80;101433.00;;;;5012543;28;20041;-66
2022/05/12 09:08:30;;;;;;;2.97;0.65;;;21.80;46.10;20.80;101427.00;;;;5025765;28;20037;-65
2022/05/12 09:11:31;;;;;;;1.85;0.65;;;21.80;46.30;20.80;101434.00;;;;5038832;28;20045;-66
2022/05/12 09:14:27;;;;;;;3.15;0.90;;;21.80;45.00;20.80;101428.00;;;;5030937;28;20039;-66
2022/05/12 09:17:19;;;;;;;1.42;0.70;;;21.80;44.90;20.80;101424.00;;;;5013884;28;20068;-65
2022/05/12 09:20:10;;;;;;;1.02;0.60;;;21.90;44.90;20.80;101425.00;;;;5012237;28;20091;-66
2022/05/12 09:22:56;;;;;;;1.25;0.50;;;21.80;44.60;20.80;101422.00;;;;5020460;28;20041;-66
2022/05/12 09:25:47;;;;;;;2.67;1.00;;;21.90;44.70;20.80;101433.00;;;;5023888;28;20040;-66
2022/05/12 09:28:35;;;;;;;3.58;0.75;;;21.90;44.20;20.80;101432.00;;;;5009963;28;20368;-66
2022/05/12 09:31:21;;;;;;;1.88;0.80;;;21.90;44.20;20.70;101428.00;;;;5026914;28;20508;-66
2022/05/12 09:34:13;;;;;;;3.03;0.60;;;21.90;44.00;20.80;101433.00;;;;5012722;28;20094;-66
2022/05/12 09:37:20;;;;;;;2.35;0.82;;;21.80;44.20;20.80;101431.00;;;;5036046;28;20110;-66
2022/05/12 09:40:32;;;;;;;1.73;0.50;;;21.80;44.10;20.80;101438.00;;;;5019302;28;20047;-66
2022/05/12 09:43:31;;;;;;;2.10;0.70;;;21.80;43.70;20.80;101437.00;;;;5041155;28;20471;-66
2022/05/12 09:46:17;;;;;;;1.48;0.60;;;21.80;44.30;20.80;101452.00;;;;5015298;28;20545;-66
2022/05/12 09:49:23;;;;;;;2.15;0.70;;;21.80;44.50;20.80;101447.00;;;;5043070;28;20675;-66
2022/05/12 09:52:46;;;;;;;1.58;0.60;;;21.80;44.20;20.80;101438.00;;;;5021406;28;20092;-66
2022/05/12 09:55:40;;;;;;;2.38;0.93;;;21.80;43.90;20.80;101431.00;;;;5028651;28;20458;-66
2022/05/12 09:58:41;;;;;;;2.53;0.65;;;21.90;43.80;20.80;101440.00;;;;5022333;28;20140;-66
2022/05/12 10:01:30;;;;;;;1.15;0.50;;;21.90;43.80;20.80;101425.00;;;;5020182;28;20116;-66
2022/05/12 10:07:54;;;;;;;2.10;0.52;;;21.90;44.30;20.90;101430.00;;;;5026989;28;20097;-65
2022/05/12 10:10:40;;;;;;;1.58;0.45;;;21.90;44.70;20.90;101431.00;;;;5022211;28;20053;-67
2022/05/12 10:13:44;;;;;;;1.40;0.70;;;21.90;44.80;20.90;101429.00;;;;5016222;28;20033;-65
2022/05/12 10:16:31;;;;;;;2.25;0.47;;;21.90;43.60;20.90;101429.00;;;;5042001;28;20083;-66
2022/05/12 10:19:22;;;;;;;2.15;0.68;;;21.90;44.10;20.90;101435.00;;;;5014645;28;20041;-65
2022/05/12 10:22:38;;;;;;;1.48;0.50;;;22.00;43.60;20.90;101434.00;;;;5015698;28;20050;-66
2022/05/12 10:26:02;;;;;;;3.40;0.70;;;22.00;43.40;20.90;101427.00;;;;5026360;28;20045;-65
2022/05/12 10:29:02;;;;;;;1.55;0.50;;;22.00;43.00;20.90;101431.00;;;;5042775;28;20055;-66
2022/05/12 10:32:20;;;;;;;1.63;0.50;;;22.00;43.60;20.90;101426.00;;;;5037237;28;20128;-66
2022/05/12 10:35:22;;;;;;;1.73;0.60;;;22.00;44.00;20.90;101424.00;;;;5013746;28;20130;-66
2022/05/12 10:38:45;;;;;;;2.55;0.60;;;22.00;43.70;20.90;101422.00;;;;5034399;28;20556;-66
2022/05/12 10:41:36;;;;;;;2.25;0.60;;;22.00;42.90;20.90;101423.00;;;;5042771;28;20040;-65
2022/05/12 10:45:02;;;;;;;5.03;0.70;;;22.00;42.50;20.90;101417.00;;;;5013267;28;20047;-65
2022/05/12 10:48:14;;;;;;;1.63;0.35;;;22.00;42.10;20.90;101422.00;;;;5007191;28;20375;-65
2022/05/12 10:51:24;;;;;;;1.90;0.35;;;22.00;42.50;20.90;101421.00;;;;5026501;28;20502;-65
2022/05/12 10:54:46;;;;;;;1.30;0.40;;;22.00;42.10;20.90;101428.00;;;;5022866;28;20068;-66
2022/05/12 10:58:01;;;;;;;0.70;0.50;;;22.00;42.60;20.90;101426.00;;;;4993984;28;20098;-65
2022/05/12 11:01:12;;;;;;;1.00;0.50;;;22.00;43.00;20.90;101430.00;;;;5017548;28;20041;-66
2022/05/12 11:04:21;;;;;;;1.27;0.50;;;22.00;43.40;20.90;101431.00;;;;5043809;28;20103;-66
2022/05/12 11:07:25;;;;;;;2.22;0.60;;;22.10;43.20;20.90;101415.00;;;;5039529;28;20323;-66
2022/05/12 11:10:40;;;;;;;1.92;0.60;;;22.10;43.30;20.90;101422.00;;;;5025200;28;20529;-65
2022/05/12 11:14:06;;;;;;;5.13;1.10;;;22.10;42.50;20.90;101430.00;;;;5030414;28;20112;-66
2022/05/12 11:17:29;;;;;;;1.67;0.70;;;22.10;42.20;20.90;101426.00;;;;5038246;28;20045;-67
2022/05/12 11:20:32;;;;;;;3.00;0.65;;;22.10;42.10;20.90;101412.00;;;;5034305;28;20037;-66
2022/05/12 11:23:38;;;;;;;6.20;0.68;;;22.10;41.80;20.90;101421.00;;;;5042153;28;20034;-65
2022/05/12 11:26:55;;;;;;;1.02;0.68;;;22.10;41.70;20.90;101401.00;;;;5020171;28;20499;-66
2022/05/12 11:30:03;;;;;;;3.08;0.73;;;22.10;41.50;20.90;101409.00;;;;5039978;28;20037;-65
2022/05/12 11:33:23;;;;;;;1.75;0.80;;;22.10;42.00;20.90;101411.00;;;;5030080;28;20100;-66
2022/05/12 11:36:10;;;;;;;3.33;1.00;;;22.10;42.20;20.90;101416.00;;;;5031546;28;20045;-66
2022/05/12 11:39:01;;;;;;;3.70;0.93;;;22.10;41.90;21.00;101412.00;;;;5017201;28;20042;-66
2022/05/12 11:41:47;;;;;;;1.85;0.70;;;22.10;41.80;21.00;101400.00;;;;5027949;28;20861;-65
2022/05/12 11:44:39;;;;;;;4.38;0.73;;;22.10;42.20;21.00;101408.00;;;;5012339;28;20548;-66
2022/05/12 11:48:06;;;;;;;1.67;0.70;;;22.10;42.20;21.00;101403.00;;;;5025468;28;20048;-66
2022/05/12 11:51:08;;;;;;;2.35;0.75;;;22.10;41.80;21.00;101406.00;;;;5038702;28;20116;-66
2022/05/12 11:54:07;;;;;;;2.47;0.60;;;22.10;41.80;21.00;101399.00;;;;5015063;28;20445;-65
2022/05/12 11:56:57;;;;;;;1.67;0.70;;;22.10;42.50;21.00;101408.00;;;;5019842;28;20049;-66
2022/05/12 11:59:46;;;;;;;2.20;0.73;;;22.20;41.90;21.00;101391.00;;;;5010893;28;20120;-66
2022/05/12 12:02:32;;;;;;;2.15;0.60;;;22.20;42.40;21.00;101408.00;;;;5039797;28;20051;-66
2022/05/12 12:05:28;;;;;;;5.10;0.80;;;22.20;41.90;21.00;101397.00;;;;5032301;28;20045;-65
2022/05/12 12:08:32;;;;;;;2.53;0.90;;;22.20;41.70;21.00;101385.00;;;;5040774;28;20158;-66
2022/05/12 12:11:20;;;;;;;1.52;0.63;;;22.20;41.20;21.00;101390.00;;;;5035506;28;20038;-65
2022/05/12 12:14:06;;;;;;;1.88;0.70;;;22.20;41.10;21.00;101394.00;;;;5034641;28;20048;-66
2022/05/12 12:17:09;;;;;;;1.90;0.60;;;22.20;40.80;21.00;101389.00;;;;5022251;28;20076;-66
2022/05/12 12:19:58;;;;;;;2.58;0.70;;;22.20;40.30;21.00;101394.00;;;;5007335;28;20037;-66
2022/05/12 12:22:52;;;;;;;2.92;1.10;;;22.20;40.60;21.10;101404.00;;;;5024390;28;20041;-65
2022/05/12 12:25:41;;;;;;;1.95;0.60;;;22.20;40.30;21.10;101394.00;;;;5027228;28;20071;-65
2022/05/12 12:29:08;;;;;;;1.48;0.50;;;22.30;40.00;21.10;101395.00;;;;5023417;28;20510;-66
2022/05/12 12:31:55;;;;;;;3.25;0.70;;;22.20;39.80;21.10;101400.00;;;;5032298;28;20130;-65
2022/05/12 12:34:52;;;;;;;3.70;0.60;;;22.20;39.90;21.10;101388.00;;;;5006730;28;20045;-66
2022/05/12 12:37:45;;;;;;;1.95;0.90;;;22.20;39.70;21.10;101392.00;;;;5013959;28;20096;-65
2022/05/12 12:40:31;;;;;;;2.45;0.55;;;22.30;39.80;21.10;101385.00;;;;5044909;28;20041;-65
2022/05/12 12:43:40;;;;;;;1.60;0.60;;;22.20;39.60;21.10;101392.00;;;;5051757;28;20036;-65
2022/05/12 12:47:11;;;;;;;1.85;0.70;;;22.20;39.70;21.10;101395.00;;;;5035285;28;20041;-65
2022/05/12 12:50:46;;;;;;;0.70;0.50;;;22.30;39.40;21.10;101388.00;;;;5019668;28;20394;-66